Terminal Aerodrome Forecast
Issued by NWS

Home | Current Version | Previous Version | Text Only | Print | Product List | Glossary On
Versions: 1 2 3 4 5 6 7 8 9 10 11 12 13 14 15 16 17 18 19 20 21 22
000
FTUS46 KSEW 091732
TAFOLM
TAF
KOLM 091732Z 0918/1018 24008KT P6SM -RA SCT011 BKN025 OVC035
      TEMPO 0918/0921 4SM -RA BR OVC011
     FM100400 20010KT 5SM -RA BR OVC015
     FM100900 20014G22KT P6SM -SHRA BKN025 OVC040
     FM101600 21010KT P6SM SCT025 BKN035 OVC050=

USA.gov is the U.S. government's official web portal to all federal, state and local government web resources and services.